Time;durP1;ratioP1;P1;durP2;ratioP2;P2;SDS_P1;SDS_P2;PMS_P1;PMS_P2;Temp;Humidity;BMP_temperature;BMP_pressure;BME280_temperature;BME280_humidity;BME280_pressure;Samples;Min_cycle;Max_cycle;Signal;HPM_P1;HPM_P2
2022/03/11 00:00:51;;;;;;;16.48;9.30;;;6.30;97.20;;;;;;4994906;28;20060;-88
2022/03/11 00:03:19;;;;;;;16.05;9.60;;;6.20;97.50;;;;;;4994574;28;20050;-88
2022/03/11 00:05:45;;;;;;;14.60;9.90;;;6.10;97.90;;;;;;5027656;28;20305;-87
2022/03/11 00:08:11;;;;;;;16.10;9.68;;;6.10;98.10;;;;;;4978870;28;20088;-87
2022/03/11 00:10:38;;;;;;;19.10;9.73;;;6.00;98.30;;;;;;5028021;28;20061;-87
2022/03/11 00:13:04;;;;;;;18.42;9.55;;;5.90;99.00;;;;;;4994753;28;20411;-88
2022/03/11 00:15:29;;;;;;;15.27;10.15;;;5.80;99.90;;;;;;5011211;28;20042;-87
2022/03/11 00:17:55;;;;;;;16.58;10.10;;;5.90;99.90;;;;;;4994992;28;20412;-87
2022/03/11 00:20:21;;;;;;;17.80;10.25;;;5.80;99.90;;;;;;4994939;28;20049;-87
2022/03/11 00:22:47;;;;;;;18.67;9.52;;;5.50;99.90;;;;;;4994794;28;20144;-87
2022/03/11 00:25:14;;;;;;;15.25;10.02;;;5.40;99.90;;;;;;5011278;28;20046;-87
2022/03/11 00:27:40;;;;;;;18.50;10.20;;;5.40;99.90;;;;;;4994725;28;20092;-87
2022/03/11 00:30:06;;;;;;;17.40;9.90;;;5.30;99.90;;;;;;4997172;28;20045;-87
2022/03/11 00:32:32;;;;;;;17.08;10.20;;;5.20;99.90;;;;;;5014691;28;20042;-88
2022/03/11 00:34:58;;;;;;;21.27;10.65;;;5.10;99.90;;;;;;5031111;28;20046;-87
2022/03/11 00:37:25;;;;;;;15.45;9.55;;;5.10;99.90;;;;;;4997941;28;20488;-87
2022/03/11 00:39:50;;;;;;;16.70;10.18;;;5.00;99.90;;;;;;4998381;28;20060;-87
2022/03/11 00:42:16;;;;;;;18.63;10.27;;;4.90;99.90;;;;;;5014691;28;20042;-87
2022/03/11 00:44:42;;;;;;;17.33;11.02;;;4.90;99.90;;;;;;4997991;28;20058;-87
2022/03/11 00:47:08;;;;;;;17.30;10.15;;;4.90;99.90;;;;;;5014455;28;20062;-88
2022/03/11 00:49:34;;;;;;;18.52;10.25;;;4.80;99.90;;;;;;5030834;28;20058;-87
2022/03/11 00:51:59;;;;;;;17.45;10.10;;;5.10;99.90;;;;;;5013851;28;20062;-87
2022/03/11 00:54:25;;;;;;;17.38;9.63;;;4.70;99.90;;;;;;4998038;28;20046;-87
2022/03/11 00:56:51;;;;;;;16.15;9.60;;;4.70;99.90;;;;;;5030945;28;20201;-88
2022/03/11 00:59:17;;;;;;;17.50;10.82;;;4.70;99.90;;;;;;4998015;28;20132;-87
2022/03/11 01:01:43;;;;;;;15.38;9.82;;;4.90;99.90;;;;;;5030475;28;20057;-87
2022/03/11 01:04:09;;;;;;;18.85;10.25;;;4.60;99.90;;;;;;5030290;28;20062;-87
2022/03/11 01:06:35;;;;;;;17.33;10.70;;;4.60;99.90;;;;;;5014155;28;20046;-87
2022/03/11 01:09:00;;;;;;;16.27;9.82;;;4.60;99.90;;;;;;4997624;28;20041;-87
2022/03/11 01:11:26;;;;;;;16.70;10.43;;;4.50;99.90;;;;;;4997898;28;20046;-87
2022/03/11 01:13:52;;;;;;;18.77;10.32;;;4.60;99.90;;;;;;4997514;28;20046;-87
2022/03/11 01:16:17;;;;;;;18.55;10.48;;;4.40;99.90;;;;;;4997611;28;20081;-87
2022/03/11 01:18:43;;;;;;;20.48;10.82;;;4.40;99.90;;;;;;5030541;28;20050;-86
2022/03/11 01:21:10;;;;;;;17.05;10.95;;;4.40;99.90;;;;;;5013622;28;20065;-87
2022/03/11 01:23:35;;;;;;;17.80;10.80;;;4.40;99.90;;;;;;5030217;28;20045;-87
2022/03/11 01:26:01;;;;;;;18.55;10.68;;;4.40;99.90;;;;;;5014055;28;20144;-87
2022/03/11 01:28:27;;;;;;;24.83;11.15;;;4.40;99.90;;;;;;5029744;28;20137;-87
2022/03/11 01:30:52;;;;;;;18.42;11.15;;;4.30;99.90;;;;;;4997080;28;20050;-87
2022/03/11 01:33:18;;;;;;;16.02;10.15;;;4.20;99.90;;;;;;5030257;28;20042;-87
2022/03/11 01:35:46;;;;;;;18.20;10.88;;;4.20;99.90;;;;;;5029911;28;20056;-87
2022/03/11 01:38:12;;;;;;;23.83;11.27;;;4.20;99.90;;;;;;4997142;28;20065;-87
2022/03/11 01:40:37;;;;;;;19.77;11.23;;;4.10;99.90;;;;;;4996700;28;20041;-87
2022/03/11 01:43:03;;;;;;;15.35;10.20;;;4.20;99.90;;;;;;5013318;28;20450;-87
2022/03/11 01:45:29;;;;;;;14.55;9.85;;;4.20;99.90;;;;;;4997199;28;20084;-87
2022/03/11 01:47:54;;;;;;;18.50;10.57;;;4.20;99.90;;;;;;4980797;28;20089;-87
2022/03/11 01:50:20;;;;;;;20.23;10.40;;;4.20;99.90;;;;;;5013273;28;20419;-87
2022/03/11 01:52:46;;;;;;;17.60;10.80;;;4.40;99.90;;;;;;5013060;28;20115;-87
2022/03/11 01:55:13;;;;;;;18.88;10.30;;;4.30;99.90;;;;;;5012785;28;20052;-86
2022/03/11 01:57:39;;;;;;;17.05;10.82;;;4.20;99.90;;;;;;4997008;28;20491;-87
2022/03/11 02:00:07;;;;;;;15.57;8.77;;;4.20;99.90;;;;;;4996818;28;20052;-88
2022/03/11 02:02:33;;;;;;;19.30;9.85;;;4.10;99.90;;;;;;5029728;28;20054;-87
2022/03/11 02:05:00;;;;;;;17.85;9.60;;;4.10;99.90;;;;;;5029493;28;20500;-87
2022/03/11 02:07:26;;;;;;;14.80;9.43;;;4.10;99.90;;;;;;4980429;28;20055;-88
2022/03/11 02:09:53;;;;;;;14.57;9.48;;;4.20;99.90;;;;;;4996225;28;20406;-87
2022/03/11 02:12:34;;;;;;;17.50;9.68;;;4.10;99.90;;;;;;4996773;28;20049;-87
2022/03/11 02:15:08;;;;;;;16.05;9.00;;;4.10;99.90;;;;;;4980154;28;20487;-87
2022/03/11 02:17:34;;;;;;;15.90;9.25;;;4.10;99.90;;;;;;5029304;28;20046;-87
2022/03/11 02:20:00;;;;;;;17.30;8.85;;;4.00;99.90;;;;;;5029408;28;20053;-86
2022/03/11 02:22:26;;;;;;;15.45;9.30;;;4.00;99.90;;;;;;5029190;28;20042;-86
2022/03/11 02:24:53;;;;;;;15.80;9.00;;;3.90;99.90;;;;;;5029221;28;20054;-87
2022/03/11 02:27:19;;;;;;;18.80;9.32;;;3.90;99.90;;;;;;5028801;28;20073;-86
2022/03/11 02:29:45;;;;;;;19.70;9.77;;;4.10;99.90;;;;;;4979438;28;20595;-87
2022/03/11 02:32:11;;;;;;;15.60;9.25;;;3.90;99.90;;;;;;4996283;28;20136;-86
2022/03/11 02:34:38;;;;;;;18.15;8.65;;;3.90;99.90;;;;;;5028641;28;20137;-87
2022/03/11 02:37:04;;;;;;;17.88;9.65;;;3.90;99.90;;;;;;4995209;28;20108;-87
2022/03/11 02:39:30;;;;;;;14.80;8.77;;;3.90;99.90;;;;;;4996403;28;20443;-87
2022/03/11 02:41:57;;;;;;;19.77;9.65;;;3.90;99.90;;;;;;4996050;28;20042;-87
2022/03/11 02:44:23;;;;;;;17.77;10.00;;;3.90;99.90;;;;;;4995844;28;20050;-86
2022/03/11 02:46:49;;;;;;;15.93;9.77;;;3.90;99.90;;;;;;5013383;28;20125;-87
2022/03/11 02:49:15;;;;;;;16.27;9.57;;;3.90;99.90;;;;;;4979784;28;20108;-87
2022/03/11 02:51:40;;;;;;;18.33;9.25;;;3.90;99.90;;;;;;5011342;28;20046;-87
2022/03/11 02:54:06;;;;;;;17.15;9.82;;;3.90;99.90;;;;;;4995822;28;20116;-87
2022/03/11 02:56:32;;;;;;;19.48;9.10;;;4.20;99.90;;;;;;4996066;28;20431;-86
2022/03/11 02:58:57;;;;;;;17.77;10.32;;;4.00;99.90;;;;;;4979519;28;20088;-87
2022/03/11 03:01:23;;;;;;;18.38;10.18;;;3.90;99.90;;;;;;4979618;28;20053;-87
2022/03/11 03:03:49;;;;;;;19.25;9.98;;;4.00;99.90;;;;;;4995262;28;20050;-86
2022/03/11 03:06:14;;;;;;;18.27;10.18;;;4.00;99.90;;;;;;5011424;28;20054;-87
2022/03/11 03:08:40;;;;;;;21.42;11.00;;;4.00;99.90;;;;;;5028224;28;20550;-87
2022/03/11 03:11:06;;;;;;;18.60;10.15;;;4.10;99.90;;;;;;5028698;28;20443;-87
2022/03/11 03:13:32;;;;;;;19.73;10.40;;;4.10;99.90;;;;;;4978885;28;20111;-88
2022/03/11 03:15:57;;;;;;;22.23;10.30;;;4.00;99.90;;;;;;4995661;28;20436;-86
2022/03/11 03:18:23;;;;;;;17.60;10.05;;;4.00;99.90;;;;;;4995192;28;20129;-87
2022/03/11 03:20:49;;;;;;;20.92;11.00;;;3.90;99.90;;;;;;5011808;28;20431;-87
2022/03/11 03:23:14;;;;;;;16.67;10.20;;;4.10;99.90;;;;;;5012505;28;20115;-87
2022/03/11 03:25:43;;;;;;;19.90;11.23;;;3.80;99.90;;;;;;4995601;28;20456;-87
2022/03/11 03:28:09;;;;;;;18.65;11.00;;;3.80;99.90;;;;;;5028337;28;20442;-87
2022/03/11 03:30:35;;;;;;;18.35;11.63;;;3.90;99.90;;;;;;4995672;28;20392;-87
2022/03/11 03:33:01;;;;;;;17.45;10.90;;;3.70;99.90;;;;;;4995304;28;20046;-87
2022/03/11 03:35:27;;;;;;;20.20;11.25;;;3.60;99.90;;;;;;5028421;28;20117;-87
2022/03/11 03:37:53;;;;;;;22.08;11.23;;;3.70;99.90;;;;;;4995094;28;20065;-87
2022/03/11 03:40:18;;;;;;;19.70;10.80;;;3.70;99.90;;;;;;5027969;28;20132;-87
2022/03/11 03:42:46;;;;;;;18.23;10.02;;;3.70;99.90;;;;;;5010996;28;20069;-86
2022/03/11 03:45:11;;;;;;;19.55;11.32;;;3.70;99.90;;;;;;5028068;28;20053;-88
2022/03/11 03:47:37;;;;;;;25.70;11.40;;;3.90;99.90;;;;;;5011293;28;20093;-87
2022/03/11 03:50:03;;;;;;;23.52;11.30;;;3.70;99.90;;;;;;5011339;28;20049;-87
2022/03/11 03:52:29;;;;;;;22.85;11.70;;;3.70;99.90;;;;;;5011314;28;20053;-87
2022/03/11 03:54:55;;;;;;;22.13;12.00;;;3.60;99.90;;;;;;5012143;28;20120;-87
2022/03/11 03:57:21;;;;;;;19.13;11.57;;;3.60;99.90;;;;;;5011437;28;20070;-86
2022/03/11 03:59:47;;;;;;;26.00;12.90;;;3.80;99.90;;;;;;5011399;28;20054;-87
2022/03/11 04:02:12;;;;;;;23.55;12.25;;;3.50;99.90;;;;;;5027679;28;20056;-87
2022/03/11 04:04:38;;;;;;;21.75;11.68;;;3.40;99.90;;;;;;4997973;28;20054;-87
2022/03/11 04:07:04;;;;;;;21.63;11.93;;;3.40;99.90;;;;;;4998733;28;20431;-86
2022/03/11 04:09:30;;;;;;;22.65;12.82;;;3.40;99.90;;;;;;5014695;28;20048;-87
2022/03/11 04:11:55;;;;;;;18.17;11.60;;;3.20;99.90;;;;;;5015381;28;20053;-86
2022/03/11 04:14:21;;;;;;;21.38;12.45;;;3.20;99.90;;;;;;4998529;28;20041;-87
2022/03/11 04:16:47;;;;;;;24.10;12.68;;;3.10;99.90;;;;;;4998711;28;20480;-86
2022/03/11 04:19:13;;;;;;;23.77;12.82;;;3.10;99.90;;;;;;4998664;28;20052;-87
2022/03/11 04:21:38;;;;;;;24.50;12.48;;;3.10;99.90;;;;;;5014904;28;20049;-87
2022/03/11 04:24:12;;;;;;;21.02;12.23;;;3.00;99.90;;;;;;4998538;28;20042;-88
2022/03/11 04:26:39;;;;;;;23.40;13.18;;;3.00;99.90;;;;;;5015065;28;20443;-87
2022/03/11 04:29:05;;;;;;;23.92;12.23;;;3.00;99.90;;;;;;4998442;28;20096;-87
2022/03/11 04:31:31;;;;;;;23.30;13.43;;;2.90;99.90;;;;;;5031516;28;20049;-87
2022/03/11 04:33:57;;;;;;;26.45;12.98;;;2.90;99.90;;;;;;4998188;28;20053;-87
2022/03/11 04:36:23;;;;;;;23.73;12.88;;;2.90;99.90;;;;;;5014572;28;20046;-87
2022/03/11 04:38:48;;;;;;;25.65;13.10;;;2.90;99.90;;;;;;4997878;28;20060;-87
2022/03/11 04:41:14;;;;;;;21.63;12.98;;;2.80;99.90;;;;;;4981543;28;20046;-87
2022/03/11 04:43:40;;;;;;;23.40;12.68;;;2.80;99.90;;;;;;4998071;28;20048;-87
2022/03/11 04:46:06;;;;;;;24.98;14.15;;;2.80;99.90;;;;;;4998364;28;20068;-87
2022/03/11 04:48:32;;;;;;;23.38;13.55;;;2.70;99.90;;;;;;5013525;28;20058;-87
2022/03/11 04:50:57;;;;;;;26.48;14.18;;;3.00;99.90;;;;;;4997893;28;20510;-87
2022/03/11 04:53:23;;;;;;;22.83;12.95;;;2.70;99.90;;;;;;4997791;28;20045;-87
2022/03/11 04:55:49;;;;;;;23.73;13.43;;;2.70;99.90;;;;;;4997495;28;20218;-87
2022/03/11 04:58:14;;;;;;;23.15;13.75;;;2.70;99.90;;;;;;4998096;28;20096;-87
2022/03/11 05:00:40;;;;;;;21.48;13.02;;;2.70;99.90;;;;;;4997949;28;20042;-86
2022/03/11 05:03:06;;;;;;;27.48;13.77;;;2.70;99.90;;;;;;5027318;28;20058;-86
2022/03/11 05:05:32;;;;;;;25.00;14.63;;;2.60;99.90;;;;;;5011090;28;20484;-87
2022/03/11 05:07:57;;;;;;;23.48;14.35;;;2.60;99.90;;;;;;5010782;28;20058;-86
2022/03/11 05:10:23;;;;;;;23.48;14.00;;;2.60;99.90;;;;;;5010495;28;20112;-87
2022/03/11 05:12:49;;;;;;;24.60;13.40;;;2.70;99.90;;;;;;5011085;28;20404;-87
2022/03/11 05:15:14;;;;;;;26.40;14.55;;;2.60;99.90;;;;;;5009883;28;20058;-86
2022/03/11 05:17:40;;;;;;;24.17;13.50;;;2.70;99.90;;;;;;4994287;28;20484;-87
2022/03/11 05:20:06;;;;;;;25.30;14.18;;;2.60;99.90;;;;;;4994404;28;20155;-86
2022/03/11 05:22:33;;;;;;;23.85;13.50;;;2.50;99.90;;;;;;5027328;28;20046;-86
2022/03/11 05:24:59;;;;;;;29.02;14.52;;;2.50;99.90;;;;;;4993888;28;20073;-87
2022/03/11 05:27:25;;;;;;;30.27;15.13;;;2.50;99.90;;;;;;4994313;28;20046;-85
2022/03/11 05:29:51;;;;;;;28.10;15.23;;;2.50;99.90;;;;;;5010390;28;20503;-86
2022/03/11 05:32:19;;;;;;;26.48;13.70;;;2.50;99.90;;;;;;5010390;28;20046;-87
2022/03/11 05:34:45;;;;;;;24.05;13.52;;;2.90;99.90;;;;;;4993916;28;20133;-86
2022/03/11 05:37:11;;;;;;;25.75;14.80;;;2.50;99.90;;;;;;4993842;28;20144;-87
2022/03/11 05:39:36;;;;;;;29.25;15.20;;;2.60;99.90;;;;;;4993567;28;20054;-87
2022/03/11 05:42:03;;;;;;;31.75;15.68;;;2.80;99.90;;;;;;4994185;28;20141;-88
2022/03/11 05:44:29;;;;;;;29.75;14.48;;;2.50;99.90;;;;;;4995190;28;20041;-87
2022/03/11 05:46:55;;;;;;;26.88;15.13;;;2.70;99.90;;;;;;5009989;28;20058;-87
2022/03/11 05:49:22;;;;;;;29.05;15.25;;;2.50;99.90;;;;;;5009596;28;20148;-88
2022/03/11 05:51:47;;;;;;;32.00;15.43;;;2.60;99.90;;;;;;5008736;28;20120;-87
2022/03/11 05:54:13;;;;;;;28.67;14.65;;;2.40;99.90;;;;;;4993057;28;20038;-87
2022/03/11 05:56:39;;;;;;;26.15;14.80;;;2.40;99.90;;;;;;5005969;28;20054;-87
2022/03/11 05:59:05;;;;;;;27.27;15.57;;;2.40;99.90;;;;;;4993980;28;20039;-87
2022/03/11 06:01:32;;;;;;;28.25;16.08;;;2.40;99.90;;;;;;5010074;28;20476;-87
2022/03/11 06:03:57;;;;;;;28.90;15.88;;;2.40;99.90;;;;;;5026027;28;20141;-87
2022/03/11 06:06:23;;;;;;;28.70;15.77;;;2.40;99.90;;;;;;5026292;28;20133;-87
2022/03/11 06:08:49;;;;;;;29.40;15.88;;;2.40;99.90;;;;;;4993636;28;20104;-88
2022/03/11 06:11:14;;;;;;;30.58;16.48;;;2.40;99.90;;;;;;5026041;28;20042;-87
2022/03/11 06:13:40;;;;;;;29.48;16.25;;;2.30;99.90;;;;;;5009553;28;20408;-89
2022/03/11 06:16:06;;;;;;;28.60;16.13;;;2.50;99.90;;;;;;5026188;28;20511;-87
2022/03/11 06:18:32;;;;;;;29.25;16.45;;;2.30;99.90;;;;;;4993608;28;20046;-88
2022/03/11 06:20:57;;;;;;;28.45;16.23;;;2.40;99.90;;;;;;5025994;28;20432;-88
2022/03/11 06:23:23;;;;;;;31.10;16.00;;;2.70;99.90;;;;;;4993306;28;20042;-87
2022/03/11 06:25:49;;;;;;;27.65;15.73;;;2.30;99.90;;;;;;5025868;28;20054;-87
2022/03/11 06:28:15;;;;;;;29.85;16.48;;;2.60;99.90;;;;;;5026370;28;20443;-88
2022/03/11 06:30:42;;;;;;;28.52;16.02;;;2.60;99.90;;;;;;4993268;28;20082;-87
2022/03/11 06:33:09;;;;;;;36.13;16.75;;;2.40;99.90;;;;;;4976862;28;20137;-87
2022/03/11 06:35:35;;;;;;;31.00;16.35;;;2.40;99.90;;;;;;4992727;28;20420;-88
2022/03/11 06:38:01;;;;;;;26.52;15.55;;;2.40;99.90;;;;;;4993124;28;20042;-88
2022/03/11 06:40:27;;;;;;;30.25;15.85;;;2.60;99.90;;;;;;4992839;28;20046;-86
2022/03/11 06:42:53;;;;;;;29.02;16.52;;;2.50;99.90;;;;;;5008857;28;20042;-88
2022/03/11 06:45:20;;;;;;;30.45;15.85;;;2.50;99.90;;;;;;5025835;28;20400;-87
2022/03/11 06:47:46;;;;;;;28.35;15.15;;;2.60;99.90;;;;;;5009351;28;20116;-88
2022/03/11 06:50:12;;;;;;;34.35;16.77;;;2.70;99.90;;;;;;5009227;28;20046;-88
2022/03/11 06:52:38;;;;;;;29.92;16.25;;;2.70;99.90;;;;;;5009029;28;20085;-87
2022/03/11 06:55:05;;;;;;;31.92;16.73;;;2.70;99.90;;;;;;5008540;28;20112;-87
2022/03/11 06:57:32;;;;;;;28.40;16.30;;;2.70;99.90;;;;;;5025017;28;20496;-87
2022/03/11 06:59:57;;;;;;;29.00;16.63;;;2.80;99.90;;;;;;5009248;28;20042;-88
2022/03/11 07:02:23;;;;;;;29.80;16.33;;;2.90;99.90;;;;;;4992490;28;20059;-87
2022/03/11 07:04:49;;;;;;;28.70;16.23;;;2.90;99.90;;;;;;5009370;28;20137;-90
2022/03/11 07:07:15;;;;;;;30.92;16.52;;;2.90;99.90;;;;;;5009295;28;20054;-88
2022/03/11 07:09:41;;;;;;;30.13;16.65;;;3.00;99.90;;;;;;5009238;28;20464;-87
2022/03/11 07:12:06;;;;;;;31.20;15.50;;;2.90;99.90;;;;;;5025627;28;20051;-87
2022/03/11 07:14:35;;;;;;;33.03;17.80;;;3.10;99.90;;;;;;5009681;28;20046;-86
2022/03/11 07:17:07;;;;;;;33.78;16.23;;;3.20;99.90;;;;;;5010385;28;20046;-88
2022/03/11 07:19:33;;;;;;;29.88;16.02;;;3.30;99.90;;;;;;4998108;28;20404;-86
2022/03/11 07:22:01;;;;;;;29.77;16.05;;;3.30;99.90;;;;;;5000478;28;20408;-87
2022/03/11 07:24:27;;;;;;;27.15;14.95;;;3.40;99.90;;;;;;5029387;28;20094;-87
2022/03/11 07:26:53;;;;;;;32.70;16.42;;;3.50;99.90;;;;;;5015791;28;20043;-89
2022/03/11 07:29:19;;;;;;;27.63;16.35;;;3.60;99.90;;;;;;5015335;28;20120;-89
2022/03/11 07:31:47;;;;;;;30.88;16.65;;;3.60;99.90;;;;;;5033228;28;20043;-88
2022/03/11 07:34:14;;;;;;;30.80;16.77;;;3.70;99.90;;;;;;5031598;28;20443;-89
2022/03/11 07:36:40;;;;;;;31.98;15.82;;;3.80;99.90;;;;;;5031968;28;20399;-89
2022/03/11 07:39:07;;;;;;;29.55;16.70;;;4.00;99.90;;;;;;4999268;28;20133;-88
2022/03/11 07:41:34;;;;;;;31.05;16.98;;;4.00;99.90;;;;;;4995846;28;20054;-88
2022/03/11 07:44:00;;;;;;;32.78;17.00;;;4.00;99.90;;;;;;5025804;28;20488;-89
2022/03/11 07:46:27;;;;;;;29.27;16.17;;;4.20;99.90;;;;;;5008883;28;20061;-88
2022/03/11 07:48:54;;;;;;;29.35;16.58;;;4.20;99.90;;;;;;5008632;28;20072;-90
2022/03/11 07:51:20;;;;;;;28.25;16.05;;;4.30;99.90;;;;;;4992212;28;20143;-89
2022/03/11 07:53:46;;;;;;;28.80;16.05;;;4.40;99.90;;;;;;4992225;28;20046;-89
2022/03/11 07:56:14;;;;;;;27.67;16.20;;;4.50;99.90;;;;;;4992119;28;20049;-89
2022/03/11 07:58:41;;;;;;;29.17;16.50;;;4.60;99.90;;;;;;5008618;28;20061;-89
2022/03/11 08:01:12;;;;;;;32.05;16.15;;;4.90;99.90;;;;;;5025543;28;20456;-89
2022/03/11 08:03:39;;;;;;;26.00;15.10;;;4.70;99.90;;;;;;5024641;28;20464;-90
2022/03/11 08:06:06;;;;;;;29.27;16.40;;;4.80;99.90;;;;;;5025022;28;20054;-88
2022/03/11 08:08:32;;;;;;;29.90;16.80;;;4.90;99.90;;;;;;5024945;28;20046;-89
2022/03/11 08:10:58;;;;;;;29.48;16.48;;;4.90;99.90;;;;;;5008628;28;20109;-89
2022/03/11 08:13:24;;;;;;;29.13;15.80;;;5.00;99.90;;;;;;5008364;28;20054;-88
2022/03/11 08:15:50;;;;;;;28.67;17.10;;;5.30;99.90;;;;;;5024676;28;20500;-89
2022/03/11 08:18:16;;;;;;;26.23;15.43;;;5.20;99.90;;;;;;5009089;28;20113;-88
2022/03/11 08:20:42;;;;;;;29.45;16.40;;;5.30;99.90;;;;;;4992207;28;20046;-89
2022/03/11 08:23:08;;;;;;;29.77;16.00;;;5.40;99.90;;;;;;5025683;28;20057;-89
2022/03/11 08:25:35;;;;;;;30.75;17.13;;;5.50;99.90;;;;;;5007697;28;20084;-88
2022/03/11 08:28:01;;;;;;;25.63;15.57;;;5.70;99.90;;;;;;5008498;28;20050;-89
2022/03/11 08:30:27;;;;;;;27.30;16.70;;;5.60;99.90;;;;;;5024757;28;20123;-89
2022/03/11 08:32:53;;;;;;;32.40;16.23;;;5.70;99.90;;;;;;5024832;28;20042;-89
2022/03/11 08:35:19;;;;;;;27.23;16.08;;;5.80;99.90;;;;;;4991433;28;20050;-90
2022/03/11 08:37:46;;;;;;;30.70;16.55;;;5.90;99.90;;;;;;4991706;28;20046;-88
2022/03/11 08:40:14;;;;;;;28.38;15.85;;;5.90;99.90;;;;;;5024283;28;20038;-88
2022/03/11 08:42:41;;;;;;;28.95;15.60;;;6.20;99.90;;;;;;4991472;28;20130;-89
2022/03/11 08:45:09;;;;;;;26.67;16.23;;;6.10;99.90;;;;;;5024459;28;20408;-89
2022/03/11 08:47:34;;;;;;;28.20;16.40;;;6.20;99.90;;;;;;4991848;28;20050;-89
2022/03/11 08:50:02;;;;;;;27.35;16.88;;;6.30;99.90;;;;;;4992413;28;20396;-88
2022/03/11 08:52:29;;;;;;;29.13;15.23;;;6.30;99.90;;;;;;5011773;28;20373;-89
2022/03/11 08:54:55;;;;;;;26.25;15.75;;;6.50;99.90;;;;;;5027371;28;20086;-89
2022/03/11 08:57:21;;;;;;;26.98;16.15;;;6.60;99.90;;;;;;4995741;28;20496;-91
2022/03/11 08:59:47;;;;;;;27.13;16.52;;;6.70;99.90;;;;;;5011692;28;20086;-88
2022/03/11 09:02:15;;;;;;;24.75;14.93;;;6.90;99.90;;;;;;5013896;28;21297;-89
2022/03/11 09:04:41;;;;;;;25.88;15.23;;;6.80;99.90;;;;;;5031059;28;20054;-89
2022/03/11 09:07:08;;;;;;;28.45;15.90;;;6.90;99.90;;;;;;5031543;28;20473;-89
2022/03/11 09:09:36;;;;;;;28.40;16.27;;;7.10;99.90;;;;;;4998490;28;20132;-90
2022/03/11 09:12:03;;;;;;;26.33;14.90;;;7.20;99.90;;;;;;5014572;28;20060;-90
2022/03/11 09:14:30;;;;;;;27.52;16.85;;;7.20;99.90;;;;;;5014264;28;20560;-90
2022/03/11 09:16:56;;;;;;;28.52;16.23;;;7.70;99.90;;;;;;5031494;28;20520;-89
2022/03/11 09:19:22;;;;;;;27.15;15.80;;;8.20;99.90;;;;;;5031473;28;20441;-89
2022/03/11 09:21:48;;;;;;;27.02;16.13;;;8.90;99.90;;;;;;5031279;28;20037;-90
2022/03/11 09:24:14;;;;;;;24.88;15.93;;;9.70;98.20;;;;;;5031140;28;20049;-89
2022/03/11 09:26:39;;;;;;;26.45;16.20;;;10.60;94.40;;;;;;5014124;28;20046;-89
2022/03/11 09:29:06;;;;;;;26.58;16.27;;;11.70;89.40;;;;;;5014879;28;20457;-90
2022/03/11 09:31:32;;;;;;;26.08;16.55;;;12.60;76.70;;;;;;5014350;28;20053;-87
2022/03/11 09:33:58;;;;;;;23.15;16.10;;;13.50;70.30;;;;;;5030481;28;20072;-88
2022/03/11 09:36:25;;;;;;;26.55;16.73;;;13.90;66.50;;;;;;5014129;28;20120;-88
2022/03/11 09:38:51;;;;;;;26.42;16.05;;;14.30;62.20;;;;;;4997640;28;20057;-90
2022/03/11 09:41:18;;;;;;;24.65;15.57;;;14.80;60.00;;;;;;5030111;28;20054;-90
2022/03/11 09:43:45;;;;;;;21.75;15.75;;;15.30;57.70;;;;;;4997547;28;20056;-88
2022/03/11 09:46:11;;;;;;;23.50;17.13;;;15.50;56.30;;;;;;5030357;28;20042;-88
2022/03/11 09:48:38;;;;;;;22.77;15.43;;;15.90;54.40;;;;;;5013613;28;20112;-89
2022/03/11 09:51:03;;;;;;;25.20;16.77;;;16.30;53.70;;;;;;5013672;28;20046;-88
2022/03/11 09:53:29;;;;;;;24.15;16.40;;;16.60;52.00;;;;;;5030173;28;20092;-88
2022/03/11 09:55:55;;;;;;;22.67;15.63;;;16.90;50.30;;;;;;5029970;28;20054;-88
2022/03/11 09:58:21;;;;;;;23.23;15.07;;;17.00;49.50;;;;;;5030267;28;20057;-88
2022/03/11 10:00:48;;;;;;;23.25;16.50;;;17.10;48.80;;;;;;5029726;28;20049;-88
2022/03/11 10:03:15;;;;;;;24.63;16.00;;;17.40;48.30;;;;;;4977613;28;20058;-88
2022/03/11 10:05:50;;;;;;;24.58;15.52;;;17.70;46.90;;;;;;5027015;28;20500;-89
2022/03/11 10:08:28;;;;;;;22.23;15.35;;;17.60;46.00;;;;;;5027054;28;20042;-89
2022/03/11 10:11:20;;;;;;;24.65;16.70;;;17.50;45.30;;;;;;5010537;28;20057;-88
2022/03/11 10:13:46;;;;;;;21.67;15.20;;;17.40;43.40;;;;;;5009815;28;20051;-89
2022/03/11 10:16:23;;;;;;;21.63;14.68;;;17.30;44.40;;;;;;5010206;28;20042;-89
2022/03/11 10:18:57;;;;;;;21.67;15.63;;;17.10;44.40;;;;;;4993752;28;20046;-93
2022/03/11 10:21:44;;;;;;;23.08;15.02;;;17.00;44.00;;;;;;4993830;28;20088;-88
2022/03/11 10:24:15;;;;;;;25.45;15.20;;;17.20;43.40;;;;;;4993874;28;20054;-88
2022/03/11 10:26:47;;;;;;;21.25;14.13;;;17.80;44.40;;;;;;5026687;28;20050;-88
2022/03/11 10:29:27;;;;;;;20.08;14.77;;;18.40;43.10;;;;;;5009922;28;20082;-89
2022/03/11 10:31:58;;;;;;;22.58;15.10;;;18.90;41.80;;;;;;5026062;28;20589;-89
2022/03/11 10:34:31;;;;;;;20.92;15.13;;;19.10;41.70;;;;;;5026049;28;20053;-89
2022/03/11 10:37:01;;;;;;;20.08;15.10;;;18.90;41.00;;;;;;5010105;28;20054;-90
2022/03/11 10:39:39;;;;;;;20.10;15.00;;;18.90;41.40;;;;;;4993612;28;20519;-90
2022/03/11 10:42:20;;;;;;;23.30;15.63;;;18.80;40.80;;;;;;5009784;28;20060;-89
2022/03/11 10:45:02;;;;;;;20.65;15.02;;;18.80;40.70;;;;;;4977653;28;20049;-90
2022/03/11 10:47:37;;;;;;;20.08;14.48;;;18.90;40.50;;;;;;5010126;28;20049;-89
2022/03/11 10:50:08;;;;;;;21.45;15.25;;;19.00;40.80;;;;;;4993465;28;20129;-88
2022/03/11 10:52:35;;;;;;;24.92;15.18;;;19.20;40.70;;;;;;5010025;28;20101;-90
2022/03/11 10:55:30;;;;;;;20.40;15.52;;;19.50;40.40;;;;;;5014605;28;20046;-89
2022/03/11 10:57:58;;;;;;;23.40;14.45;;;19.80;38.10;;;;;;4934180;29;20056;-88
2022/03/11 11:00:32;;;;;;;20.10;14.93;;;19.70;39.10;;;;;;4954946;29;20062;-89
2022/03/11 11:03:03;;;;;;;24.00;15.88;;;19.60;38.70;;;;;;4937910;29;20056;-89
2022/03/11 11:05:30;;;;;;;24.65;16.13;;;19.20;38.80;;;;;;4929901;29;20075;-89
2022/03/11 11:07:57;;;;;;;21.95;16.17;;;18.90;39.40;;;;;;4941685;29;20051;-90
2022/03/11 11:10:24;;;;;;;22.40;16.02;;;18.90;39.60;;;;;;4943979;29;20094;-90
2022/03/11 11:12:52;;;;;;;21.98;15.63;;;19.10;39.40;;;;;;4929674;29;20055;-91
2022/03/11 11:15:18;;;;;;;24.25;16.33;;;19.30;38.80;;;;;;4924160;29;20433;-91
2022/03/11 11:17:47;;;;;;;21.85;15.88;;;19.40;39.00;;;;;;4939732;29;20054;-90
2022/03/11 11:20:25;;;;;;;21.85;16.63;;;19.40;39.00;;;;;;4922709;29;20059;-90
2022/03/11 11:22:53;;;;;;;25.08;16.13;;;19.70;38.90;;;;;;4934299;29;20052;-90
2022/03/11 11:25:21;;;;;;;23.92;16.23;;;19.80;38.10;;;;;;4918282;29;20405;-90
2022/03/11 11:27:47;;;;;;;22.90;15.90;;;19.60;38.40;;;;;;4934080;29;20074;-90
2022/03/11 11:30:20;;;;;;;23.08;16.05;;;19.70;38.30;;;;;;4918223;29;20405;-90
2022/03/11 11:32:52;;;;;;;22.13;15.80;;;20.00;37.90;;;;;;4917900;29;20110;-92
2022/03/11 11:35:40;;;;;;;23.88;16.55;;;20.40;38.00;;;;;;4987687;28;20120;-91
2022/03/11 11:38:26;;;;;;;22.95;15.43;;;20.60;37.90;;;;;;5009135;28;20050;-91
2022/03/11 11:40:52;;;;;;;19.98;15.30;;;20.60;37.60;;;;;;4975923;28;20416;-89
2022/03/11 11:43:26;;;;;;;21.40;16.20;;;20.80;37.80;;;;;;5008598;28;20050;-89
2022/03/11 11:46:19;;;;;;;22.15;15.80;;;21.00;37.20;;;;;;4992972;28;20126;-90
2022/03/11 11:48:45;;;;;;;23.98;16.60;;;20.90;36.70;;;;;;4989873;28;20507;-92
2022/03/11 11:51:22;;;;;;;24.40;16.40;;;20.90;37.20;;;;;;4976284;28;20056;-89
2022/03/11 11:53:56;;;;;;;24.23;16.30;;;20.90;36.60;;;;;;5008685;28;20046;-91
2022/03/11 11:56:28;;;;;;;22.50;16.20;;;21.20;36.30;;;;;;5025096;28;20055;-93
2022/03/11 11:58:58;;;;;;;22.05;15.70;;;21.30;36.10;;;;;;4992849;28;20043;-89
2022/03/11 12:01:47;;;;;;;21.33;14.83;;;21.30;36.40;;;;;;4992055;28;20519;-89
2022/03/11 12:04:27;;;;;;;23.27;17.10;;;21.40;35.30;;;;;;4991962;28;20148;-89
2022/03/11 12:07:04;;;;;;;22.17;15.82;;;21.10;36.10;;;;;;5008689;28;20085;-89
2022/03/11 12:09:39;;;;;;;25.25;17.02;;;21.10;36.30;;;;;;5008199;28;20157;-89
2022/03/11 12:12:20;;;;;;;21.95;15.82;;;21.20;36.00;;;;;;5024967;28;20046;-91
2022/03/11 12:15:04;;;;;;;26.77;16.73;;;21.40;35.10;;;;;;5007847;28;20145;-88
2022/03/11 12:17:40;;;;;;;21.63;16.23;;;21.30;35.90;;;;;;4976159;28;20101;-89
2022/03/11 12:20:34;;;;;;;23.10;15.90;;;21.40;35.70;;;;;;5008570;28;20050;-87
2022/03/11 12:23:14;;;;;;;24.30;16.40;;;21.70;36.10;;;;;;4989597;28;20455;-89
2022/03/11 12:25:46;;;;;;;21.58;16.35;;;21.90;35.80;;;;;;4995435;28;20050;-90
2022/03/11 12:28:12;;;;;;;23.98;16.10;;;22.00;35.30;;;;;;4978871;28;20397;-88
2022/03/11 12:31:03;;;;;;;23.00;16.58;;;22.00;35.30;;;;;;4996059;28;20385;-89
2022/03/11 12:33:33;;;;;;;27.23;16.13;;;22.00;35.10;;;;;;4995119;28;20066;-90
2022/03/11 12:36:00;;;;;;;22.02;16.27;;;22.10;34.90;;;;;;5028317;28;20042;-88
2022/03/11 12:38:28;;;;;;;19.48;16.00;;;22.40;35.20;;;;;;4995937;28;20057;-89